Wright Patterson, Ohio
Current Conditions -  °F | °C
As of 2:58 PM on Thursday 23 Oct 2014 (Local Time) from KFFO Reporting Station
Clear Clear  
Wind Chill: 59°   Ceiling: Unl
Heat Index: 59°   Visibility: 10mi
Dew Point: 41°   Wind: 1mph
Humidity: 52%   Direction: NA
Pressure: 30.17"   Gusts: NA
Location:  39.8169°N, 84.0506°W
Report Text: KFFO 231858Z AUTO VRB01KT 10SM CLR 15/05 A3017 RMK AO2 SLP221 T01480050
Loading
Personal Weather Stations






























Interactive Weather Map
Tropical Storm Tracking
New forecast layout! Learn more

10-Day Weather Forecast

Advertisements
Track Severe Weather on mobile